Rodeo, Argentina
Current Conditions -  °F | °C
As of 7:00 PM on Thursday 18 Dec 2014 (Local Time) from SCSE Reporting Station
Overcast Overcast  
Wind Chill: 59°   Ceiling: 2300
Heat Index: 59°   Visibility: 6mi
Dew Point: 54°   Wind: 7mph
Humidity: 82%   Direction: 290°WNW
Pressure: 29.97"   Gusts: NA
Location:  30.2°S, 69.1°W
Report Text: SCSE 182200Z 29006KT 9999 FEW014 OVC023 15/12 Q1015
Loading
Personal Weather Stations






























Interactive Weather Map New forecast layout! Learn more

10-Day Weather Forecast

Advertisements
Track Severe Weather on mobile